Goblesville, Indiana
Current Conditions -  °F | °C
As of 4:35 PM on Friday 28 Nov 2014 (Local Time) from KHHG Reporting Station
Scattered Clouds Scattered Clouds  
Wind Chill: 21°   Ceiling: Unl
Heat Index: 30°   Visibility: 10mi
Dew Point: 18°   Wind: 10mph
Humidity: 60%   Direction: 160°SSE
Pressure: 30.1"   Gusts: NA
Location:  40.9238°N, 85.5001°W
Report Text: KHHG 282135Z AUTO 16009KT 10SM SCT120 M01/M08 A3010 RMK AO2 T10101080
Loading
Personal Weather Stations






























Interactive Weather Map New forecast layout! Learn more

10-Day Weather Forecast

Advertisements
Track Severe Weather on mobile